Time;durP1;ratioP1;P1;durP2;ratioP2;P2;SDS_P1;SDS_P2;PMS_P1;PMS_P2;Temp;Humidity;BMP_temperature;BMP_pressure;BME280_temperature;BME280_humidity;BME280_pressure;Samples;Min_cycle;Max_cycle;Signal;HPM_P1;HPM_P2
2021/10/09 00:42:24;;;;;;;;;;;;;;;4.30;65.95;101850.38;5034733;28;20066;-95
2021/10/09 00:58:34;;;;;;;144.13;51.20;;;;;;;4.01;65.61;101847.06;5035209;28;20056;-95
2021/10/09 01:01:18;;;;;;;143.68;51.70;;;;;;;3.69;65.89;101799.97;4985168;28;20037;-92
2021/10/09 01:04:12;;;;;;;165.00;57.90;;;;;;;3.93;66.37;101839.13;5001180;28;20037;-94
2021/10/09 01:16:09;;;;;;;179.30;58.20;;;;;;;3.90;66.70;101834.13;5004153;28;20049;-94
2021/10/09 01:19:02;;;;;;;196.10;63.95;;;;;;;3.95;66.50;101832.47;4993315;28;20141;-93
2021/10/09 01:22:13;;;;;;;268.10;77.03;;;;;;;3.96;66.76;101831.44;4977401;28;20106;-95
2021/10/09 01:29:09;;;;;;;374.73;104.10;;;;;;;3.69;66.73;101778.34;5013349;28;20073;-95
2021/10/09 01:45:08;;;;;;;234.95;76.18;;;;;;;3.92;66.64;101827.47;5016833;28;20501;-89
2021/10/09 01:48:00;;;;;;;195.32;64.10;;;;;;;3.89;66.44;101827.88;4999281;28;20196;-95
2021/10/09 01:50:28;;;;;;;216.02;65.68;;;;;;;3.61;66.65;101776.69;5015680;28;20038;-96
2021/10/09 01:53:19;;;;;;;176.80;59.22;;;;;;;3.96;65.37;101827.88;5015634;28;20033;-92
2021/10/09 01:56:24;;;;;;;170.27;56.83;;;;;;;3.92;64.87;101823.94;5001141;28;20045;-95
2021/10/09 01:59:19;;;;;;;155.43;51.25;;;;;;;3.27;64.99;101751.41;4976641;28;20052;-94
2021/10/09 02:01:55;;;;;;;160.13;51.80;;;;;;;3.69;65.66;101818.91;4979014;28;20130;-93
2021/10/09 02:08:45;;;;;;;150.77;50.65;;;;;;;3.60;65.29;101793.91;4967823;28;20046;-95
2021/10/09 02:16:33;;;;;;;151.63;51.33;;;;;;;3.33;66.19;101749.78;4977220;28;20081;-94
2021/10/09 02:33:25;;;;;;;125.20;42.35;;;;;;;3.87;66.04;101808.31;4952443;29;20134;-95
2021/10/09 03:15:47;;;;;;;118.03;41.35;;;;;;;2.76;65.34;101734.88;5041980;28;20123;-94
2021/10/09 04:12:24;;;;;;;112.68;43.13;;;;;;;2.54;67.20;101775.47;5029685;28;20076;-87
2021/10/09 04:58:54;;;;;;;106.60;42.08;;;;;;;3.80;67.19;101776.88;5860716;23;20047;-87
2021/10/09 05:01:21;;;;;;;106.18;40.20;;;;;;;3.90;66.88;101791.66;4978218;28;20097;-94
2021/10/09 05:03:47;;;;;;;97.97;40.22;;;;;;;3.98;66.59;101780.63;4991236;28;20073;-93
2021/10/09 05:06:14;;;;;;;93.50;39.17;;;;;;;4.10;66.58;101780.81;4992189;28;20038;-94
2021/10/09 07:01:21;;;;;;;71.82;24.98;;;;;;;8.72;54.28;101775.78;4901687;29;20047;-83
2021/10/09 07:03:47;;;;;;;77.90;26.55;;;;;;;8.57;54.03;101746.28;4926662;29;20061;-84
2021/10/09 07:06:16;;;;;;;63.95;24.67;;;;;;;8.78;54.25;101764.72;4933440;29;20047;-86
2021/10/09 07:09:02;;;;;;;62.95;26.45;;;;;;;8.89;53.89;101760.31;4894932;29;20037;-85
2021/10/09 07:11:52;;;;;;;68.20;28.08;;;;;;;9.01;54.35;101763.03;4901545;29;20051;-85
2021/10/09 07:14:18;;;;;;;82.15;29.38;;;;;;;9.08;53.61;101760.97;4915138;29;20476;-86
2021/10/09 07:16:44;;;;;;;74.35;29.40;;;;;;;9.17;53.70;101762.22;4914441;29;20581;-84
2021/10/09 07:19:11;;;;;;;79.82;29.35;;;;;;;9.25;53.76;101761.03;4913014;29;20488;-87
2021/10/09 07:21:41;;;;;;;67.38;28.02;;;;;;;9.35;53.82;101766.66;4911156;29;20045;-84
2021/10/09 07:24:09;;;;;;;75.65;30.15;;;;;;;9.47;53.00;101756.53;4919344;29;20043;-84
2021/10/09 07:26:35;;;;;;;77.63;28.52;;;;;;;9.53;53.30;101760.16;4893693;29;20040;-81
2021/10/09 07:29:02;;;;;;;96.13;30.63;;;;;;;9.57;53.60;101758.56;4913541;29;20047;-82
2021/10/09 07:31:29;;;;;;;93.50;31.60;;;;;;;9.56;53.42;101744.09;4892837;29;20049;-85
2021/10/09 07:33:55;;;;;;;91.60;31.83;;;;;;;9.67;53.02;101758.78;4893897;29;20138;-82
2021/10/09 07:36:21;;;;;;;68.32;27.15;;;;;;;9.72;52.66;101758.84;4903205;29;20067;-81
2021/10/09 07:38:47;;;;;;;67.68;28.52;;;;;;;9.81;52.22;101751.91;4908893;29;20041;-83
2021/10/09 07:41:13;;;;;;;80.93;30.50;;;;;;;9.96;53.16;101758.69;4892076;29;20878;-82
2021/10/09 07:43:39;;;;;;;73.38;26.73;;;;;;;10.01;52.68;101751.41;4891848;29;20051;-82
2021/10/09 07:46:05;;;;;;;65.78;25.27;;;;;;;10.10;52.22;101747.19;4892018;29;20040;-79
2021/10/09 07:48:32;;;;;;;70.85;25.15;;;;;;;10.16;51.55;101747.25;4911215;29;20044;-80
2021/10/09 07:50:58;;;;;;;70.55;25.00;;;;;;;10.28;51.52;101742.56;4911423;29;20421;-82
2021/10/09 07:53:24;;;;;;;58.35;23.23;;;;;;;10.62;56.65;101745.19;4897262;29;20155;-85
2021/10/09 07:55:50;;;;;;;58.47;25.17;;;;;;;10.99;50.57;101739.91;4892189;29;20148;-85
2021/10/09 07:58:17;;;;;;;62.97;23.40;;;;;;;11.44;57.43;101742.31;4901398;29;20039;-82
2021/10/09 08:00:43;;;;;;;62.92;22.52;;;;;;;11.67;51.32;101732.91;4906972;29;20100;-84
2021/10/09 08:03:09;;;;;;;51.97;22.35;;;;;;;11.94;51.71;101735.63;4891145;29;20124;-82
2021/10/09 08:05:36;;;;;;;42.58;21.13;;;;;;;12.39;53.84;101728.81;4889858;29;20044;-82
2021/10/09 08:08:04;;;;;;;48.25;20.83;;;;;;;12.55;48.62;101721.50;4891608;29;20072;-79
2021/10/09 08:10:30;;;;;;;50.17;20.00;;;;;;;12.73;48.63;101733.91;4891374;29;20048;-83
2021/10/09 08:12:57;;;;;;;57.47;20.77;;;;;;;13.23;45.80;101729.66;4892830;29;20300;-84
2021/10/09 08:15:23;;;;;;;45.55;19.10;;;;;;;12.98;44.14;101732.34;4909496;29;20104;-84
2021/10/09 08:17:49;;;;;;;41.20;16.58;;;;;;;12.78;43.09;101733.09;4899192;29;20112;-78
2021/10/09 08:20:16;;;;;;;53.05;15.05;;;;;;;12.54;41.60;101729.97;4910966;29;20425;-81
2021/10/09 08:22:57;;;;;;;24.38;9.88;;;;;;;12.35;41.12;101718.63;4922079;29;20051;-80
2021/10/09 08:28:16;;;;;;;30.67;9.82;;;;;;;12.50;41.35;101726.94;4905206;29;20040;-81
2021/10/09 08:36:15;;;;;;;22.77;8.07;;;;;;;12.78;42.88;101724.84;4888589;29;20056;-82
2021/10/09 08:38:50;;;;;;;33.10;7.60;;;;;;;13.44;42.78;101719.56;4887216;29;20405;-91
2021/10/09 08:41:19;;;;;;;16.67;7.32;;;;;;;13.44;38.75;101718.72;4907138;29;20040;-76
2021/10/09 08:43:48;;;;;;;26.42;8.18;;;;;;;13.21;36.65;101717.28;4897631;29;20383;-85
2021/10/09 08:46:16;;;;;;;27.48;10.13;;;;;;;13.09;38.04;101712.06;4900363;29;20506;-87
2021/10/09 08:48:49;;;;;;;47.17;8.20;;;;;;;13.22;39.80;101718.97;4891121;29;20072;-78
2021/10/09 08:51:25;;;;;;;17.42;8.32;;;;;;;13.49;38.85;101721.50;4902352;29;20125;-76
2021/10/09 08:54:03;;;;;;;30.38;8.60;;;;;;;13.36;37.17;101726.41;4897986;29;20449;-83
2021/10/09 08:56:30;;;;;;;25.73;8.20;;;;;;;13.26;38.05;101720.91;4891681;29;20076;-83
2021/10/09 08:59:13;;;;;;;19.13;7.05;;;;;;;13.09;36.32;101712.88;4904006;29;20045;-85
2021/10/09 09:01:57;;;;;;;17.63;7.65;;;;;;;12.96;36.20;101718.06;4896375;29;20135;-87
2021/10/09 09:35:44;;;;;;;27.85;9.07;;;;;;;12.92;36.08;101693.06;4911335;29;20048;-80
2021/10/09 09:40:16;;;;;;;55.85;10.13;;;;;;;12.95;36.15;101695.28;4922245;29;20051;-79
2021/10/09 09:42:50;;;;;;;57.05;10.68;;;;;;;13.03;36.53;101688.44;4921637;29;20409;-79
2021/10/09 09:45:26;;;;;;;28.95;9.23;;;;;;;13.10;37.00;101672.50;4915169;29;20039;-78
2021/10/09 09:48:00;;;;;;;22.00;9.70;;;;;;;13.20;36.83;101683.50;4910044;29;20443;-84
2021/10/09 09:50:28;;;;;;;17.42;8.50;;;;;;;13.13;36.18;101666.47;4912632;29;20036;-78
2021/10/09 09:52:55;;;;;;;33.38;8.98;;;;;;;13.07;36.44;101670.31;4911759;29;20509;-79
2021/10/09 09:55:24;;;;;;;61.25;10.00;;;;;;;13.09;36.44;101681.84;4912404;29;20076;-79
2021/10/09 09:57:52;;;;;;;19.73;9.85;;;;;;;13.18;35.64;101691.22;4911787;29;20052;-78
2021/10/09 10:00:19;;;;;;;170.27;62.20;;;;;;;13.18;36.96;101680.22;4907405;29;20613;-80
2021/10/09 10:02:54;;;;;;;614.03;263.25;;;;;;;13.10;36.53;101664.28;4909641;29;20130;-77
2021/10/09 10:05:26;;;;;;;539.65;164.43;;;;;;;13.22;36.75;101667.59;4914083;29;20130;-82
2021/10/09 10:07:52;;;;;;;66.72;21.10;;;;;;;13.34;36.57;101681.06;4913941;29;20040;-77
2021/10/09 10:10:18;;;;;;;27.60;9.38;;;;;;;13.42;35.83;101676.97;4913614;29;20096;-82
2021/10/09 10:12:50;;;;;;;30.75;9.75;;;;;;;13.44;35.31;101672.84;4913588;29;20040;-82
2021/10/09 10:15:17;;;;;;;36.08;10.07;;;;;;;13.44;35.39;101667.34;4913393;29;20095;-83
2021/10/09 10:17:48;;;;;;;28.48;7.93;;;;;;;13.39;34.94;101661.88;4911847;29;20545;-79
2021/10/09 10:20:20;;;;;;;40.60;8.95;;;;;;;13.48;36.14;101665.72;4911883;29;20047;-79
2021/10/09 10:22:51;;;;;;;21.02;8.20;;;;;;;13.52;36.11;101661.31;4912549;29;20119;-78
2021/10/09 10:25:29;;;;;;;22.27;7.80;;;;;;;13.45;34.45;101665.44;4912174;29;20605;-76
2021/10/09 10:28:02;;;;;;;41.78;7.90;;;;;;;13.47;34.94;101669.53;4912236;29;20520;-79
2021/10/09 10:31:04;;;;;;;62.22;11.23;;;;;;;13.45;36.61;101662.69;4911206;29;20076;-77
2021/10/09 10:33:38;;;;;;;26.75;8.68;;;;;;;13.48;35.58;101654.72;4910708;29;20052;-78
2021/10/09 10:36:09;;;;;;;32.47;9.40;;;;;;;13.54;35.13;101655.53;4911197;29;20127;-81
2021/10/09 10:38:44;;;;;;;17.80;8.18;;;;;;;13.62;34.83;101641.25;4911242;29;20040;-76
2021/10/09 10:41:17;;;;;;;;;;;;;;;13.71;35.25;101652.47;4911100;29;20043;-90
2021/10/09 10:43:55;;;;;;;23.00;8.10;;;;;;;13.75;34.82;101640.69;4911286;29;19970;-75
2021/10/09 10:46:35;;;;;;;114.93;13.43;;;;;;;13.82;35.90;101648.63;4906952;29;20104;-89
2021/10/09 10:49:35;;;;;;;19.10;8.48;;;;;;;13.79;35.06;101639.00;4906121;29;20053;-76
2021/10/09 10:54:35;;;;;;;23.73;7.68;;;;;;;13.83;33.86;101633.78;4901036;29;20505;-79
2021/10/09 10:57:02;;;;;;;18.98;7.47;;;;;;;13.89;31.78;101637.34;4904752;29;20150;-78
2021/10/09 10:59:35;;;;;;;29.25;7.35;;;;;;;13.89;32.60;101637.34;4908746;29;20036;-86
2021/10/09 11:02:14;;;;;;;36.97;7.85;;;;;;;13.99;33.37;101621.66;4908256;29;20040;-76
2021/10/09 11:04:43;;;;;;;33.55;8.43;;;;;;;14.23;37.14;101619.09;4908501;29;20040;-74
2021/10/09 11:07:10;;;;;;;33.42;8.05;;;;;;;14.44;35.35;101621.78;4908439;29;20043;-82
2021/10/09 11:09:39;;;;;;;84.25;10.77;;;;;;;14.40;32.72;101618.72;4907690;29;20139;-79
2021/10/09 11:12:32;;;;;;;19.33;7.75;;;;;;;14.43;32.02;101625.59;4902670;29;20644;-76
2021/10/09 11:15:20;;;;;;;27.05;8.23;;;;;;;14.46;35.03;101600.28;4903130;29;20086;-77
2021/10/09 11:17:49;;;;;;;21.38;8.27;;;;;;;14.52;32.90;101605.50;4909167;29;20054;-81
2021/10/09 11:20:47;;;;;;;37.40;7.90;;;;;;;14.65;32.48;101606.81;4906354;29;20042;-77
2021/10/09 11:23:13;;;;;;;22.55;6.93;;;;;;;14.55;31.68;101613.19;4870379;29;20515;-80
2021/10/09 11:25:42;;;;;;;168.50;12.68;;;;;;;14.37;30.93;101600.06;4866891;29;20045;-79
2021/10/09 11:28:18;;;;;;;30.33;7.15;;;;;;;14.32;29.87;101606.41;4866727;29;20067;-83
2021/10/09 11:30:44;;;;;;;;;;;;;;;14.32;29.91;101603.63;4862742;29;20219;-80
2021/10/09 11:33:11;;;;;;;59.50;10.63;;;;;;;14.31;30.40;101612.19;4864039;29;20034;-87
2021/10/09 11:35:40;;;;;;;68.35;9.38;;;;;;;14.30;30.70;101614.13;4848045;29;20064;-81
2021/10/09 11:38:22;;;;;;;27.15;6.97;;;;;;;14.30;31.52;101589.38;4848627;29;20571;-78
2021/10/09 11:40:56;;;;;;;20.85;7.10;;;;;;;14.38;30.74;101600.88;4847818;29;20483;-80
2021/10/09 11:55:04;;;;;;;11.35;6.78;;;;;;;14.37;31.69;101574.44;4871571;29;20608;-80
2021/10/09 11:57:24;;;;;;;20.30;7.72;;;;;;;14.31;30.96;101576.41;4881442;29;20354;-82
2021/10/09 11:59:51;;;;;;;28.58;7.95;;;;;;;14.28;31.52;101575.06;4863322;29;20123;-83
2021/10/09 12:02:35;;;;;;;27.75;7.22;;;;;;;14.25;31.50;101561.84;4870761;29;20558;-82
2021/10/09 12:05:04;;;;;;;29.02;7.88;;;;;;;14.22;31.93;101556.91;4875399;29;20509;-80
2021/10/09 12:07:30;;;;;;;25.92;7.57;;;;;;;14.22;31.41;101565.16;4868868;29;20402;-88
2021/10/09 12:10:00;;;;;;;18.15;7.22;;;;;;;14.27;31.35;101565.16;4889937;29;20044;-80
2021/10/09 12:12:35;;;;;;;28.10;6.97;;;;;;;14.23;30.67;101558.56;4904241;29;20059;-80
2021/10/09 12:15:02;;;;;;;20.60;7.13;;;;;;;14.18;31.84;101564.09;4890143;29;20043;-81
2021/10/09 12:17:38;;;;;;;;;;;;;;;14.19;30.96;101559.41;4877388;29;20066;-79
2021/10/09 12:20:10;;;;;;;52.28;8.95;;;;;;;14.17;31.54;101556.09;4880782;29;19979;-84
2021/10/09 12:22:48;;;;;;;44.38;8.10;;;;;;;14.22;32.00;101550.59;4869116;29;20136;-76
2021/10/09 12:25:19;;;;;;;14.48;6.53;;;;;;;14.25;32.40;101548.09;4865267;29;20080;-79
2021/10/09 12:27:56;;;;;;;27.73;7.65;;;;;;;14.34;31.83;101543.66;4876430;29;20046;-85
2021/10/09 12:30:37;;;;;;;29.42;9.05;;;;;;;14.44;31.00;101539.22;4864916;29;20071;-78
2021/10/09 12:33:04;;;;;;;29.60;7.65;;;;;;;14.54;31.68;101539.19;4869520;29;20037;-77
2021/10/09 12:35:33;;;;;;;22.25;7.38;;;;;;;14.56;30.85;101545.19;4875019;29;20060;-80
2021/10/09 12:38:04;;;;;;;79.30;13.40;;;;;;;14.48;31.64;101532.03;4913393;29;20141;-79
2021/10/09 12:40:42;;;;;;;18.50;7.40;;;;;;;14.40;29.54;101524.34;4906012;29;20152;-84
2021/10/09 12:43:12;;;;;;;26.08;7.05;;;;;;;14.37;30.96;101534.03;4896320;29;20044;-80
2021/10/09 12:45:40;;;;;;;20.10;7.18;;;;;;;14.27;30.00;101532.16;4907492;29;20205;-81
2021/10/09 12:48:08;;;;;;;20.10;7.35;;;;;;;14.13;29.66;101527.53;4914960;29;20521;-82
2021/10/09 12:50:36;;;;;;;23.42;8.02;;;;;;;14.03;30.31;101520.16;4914970;29;20454;-82
2021/10/09 12:53:03;;;;;;;58.40;8.27;;;;;;;14.04;30.53;101516.31;4908482;29;20466;-85
2021/10/09 12:55:33;;;;;;;26.10;8.05;;;;;;;13.93;30.75;101520.19;4896479;29;20048;-85
2021/10/09 12:58:04;;;;;;;28.52;7.75;;;;;;;13.84;31.94;101520.78;4896564;29;20128;-81
2021/10/09 13:00:31;;;;;;;26.48;8.20;;;;;;;13.73;31.50;101513.66;4895301;29;20092;-83
2021/10/09 13:02:57;;;;;;;;;;;;;;;13.72;30.98;101522.19;4908005;29;20498;-81
2021/10/09 13:05:26;;;;;;;18.23;7.13;;;;;;;13.75;31.85;101516.97;4913797;29;20320;-84
2021/10/09 13:07:53;;;;;;;29.00;8.02;;;;;;;13.82;32.52;101512.00;4915135;29;20040;-81
2021/10/09 13:10:21;;;;;;;47.28;14.48;;;;;;;13.87;32.76;101511.13;4915082;29;20056;-84
2021/10/09 13:12:49;;;;;;;204.98;60.80;;;;;;;13.91;33.06;101511.38;4909870;29;20082;-83
2021/10/09 13:15:17;;;;;;;225.25;69.72;;;;;;;13.94;33.82;101502.56;4910504;29;20042;-82
2021/10/09 13:17:49;;;;;;;106.70;33.05;;;;;;;13.80;33.46;101492.19;4913199;29;20379;-80
2021/10/09 13:20:17;;;;;;;37.53;12.65;;;;;;;13.71;32.97;101488.41;4913545;29;20044;-79
2021/10/09 13:22:44;;;;;;;38.53;13.13;;;;;;;13.74;33.01;101487.00;4912653;29;20047;-77
2021/10/09 13:25:11;;;;;;;37.65;11.23;;;;;;;13.81;32.62;101499.34;4907796;29;20048;-81
2021/10/09 13:27:37;;;;;;;35.47;12.27;;;;;;;13.76;33.37;101487.53;4913122;29;20046;-76
2021/10/09 13:30:04;;;;;;;54.72;17.50;;;;;;;13.81;33.67;101493.84;4913044;29;20040;-85
2021/10/09 13:32:30;;;;;;;68.25;15.65;;;;;;;13.74;34.31;101487.00;4913202;29;20036;-76
2021/10/09 13:34:57;;;;;;;42.65;14.30;;;;;;;13.76;34.48;101490.28;4916403;29;20111;-79
2021/10/09 13:37:25;;;;;;;49.47;14.40;;;;;;;13.78;34.98;101483.41;4931690;29;20040;-80
2021/10/09 13:39:54;;;;;;;75.55;23.58;;;;;;;13.74;35.65;101482.34;4898772;29;20525;-79
2021/10/09 13:42:20;;;;;;;41.67;16.27;;;;;;;13.60;35.12;101470.28;4899260;29;20474;-82
2021/10/09 13:44:46;;;;;;;42.55;15.32;;;;;;;13.70;35.75;101475.75;4914873;29;20040;-81
2021/10/09 13:47:12;;;;;;;60.63;16.80;;;;;;;13.65;35.46;101478.53;4908094;29;20092;-83
2021/10/09 13:49:39;;;;;;;49.55;15.93;;;;;;;13.57;35.57;101477.16;4920650;29;20095;-77
2021/10/09 13:52:06;;;;;;;69.15;17.88;;;;;;;13.47;35.54;101481.88;4937134;29;20051;-83
2021/10/09 13:54:32;;;;;;;48.08;14.75;;;;;;;13.49;35.86;101479.69;4906206;29;20052;-78
2021/10/09 13:56:58;;;;;;;36.92;14.43;;;;;;;13.42;35.69;101479.16;4929396;29;20048;-81
2021/10/09 13:59:26;;;;;;;67.15;15.38;;;;;;;13.33;36.22;101470.66;4899638;29;20053;-82
2021/10/09 14:01:52;;;;;;;51.55;17.80;;;;;;;13.24;36.49;101473.13;4921589;29;20489;-86
2021/10/09 14:04:18;;;;;;;57.33;16.67;;;;;;;13.11;36.40;101469.03;4921366;29;20060;-77
2021/10/09 14:06:44;;;;;;;59.50;23.75;;;;;;;13.06;36.31;101466.28;4903348;29;20080;-85
2021/10/09 14:09:10;;;;;;;50.88;22.67;;;;;;;13.03;36.34;101472.31;4899305;29;20045;-76
2021/10/09 14:11:36;;;;;;;65.60;21.33;;;;;;;12.95;36.67;101481.13;4905436;29;20095;-87
2021/10/09 14:14:02;;;;;;;63.05;22.73;;;;;;;12.90;36.61;101479.19;4916095;29;20413;-86
2021/10/09 14:16:28;;;;;;;67.90;22.63;;;;;;;12.81;36.69;101463.53;4905628;29;20056;-83
2021/10/09 14:18:54;;;;;;;69.50;24.35;;;;;;;12.80;36.97;101467.38;4898777;29;20083;-82
2021/10/09 14:21:20;;;;;;;81.38;27.67;;;;;;;12.75;37.34;101470.97;4899326;29;20044;-79
2021/10/09 14:23:46;;;;;;;83.72;32.28;;;;;;;12.57;37.69;101455.84;4910979;29;20067;-84
2021/10/09 14:26:12;;;;;;;95.75;31.30;;;;;;;12.57;38.46;101468.75;4915342;29;20509;-83
2021/10/09 14:28:39;;;;;;;99.65;33.75;;;;;;;12.40;38.81;101452.56;4917316;29;20052;-84
2021/10/09 14:31:05;;;;;;;95.00;35.85;;;;;;;12.36;38.84;101456.94;4916130;29;20064;-84
2021/10/09 14:33:32;;;;;;;90.05;32.83;;;;;;;12.29;39.60;101470.94;4906884;29;20040;-85
2021/10/09 14:35:58;;;;;;;81.25;30.88;;;;;;;12.19;39.88;101458.03;4898306;29;20063;-85
2021/10/09 14:38:25;;;;;;;95.25;32.17;;;;;;;12.06;40.53;101457.72;4898717;29;20051;-81
2021/10/09 14:40:51;;;;;;;102.55;37.45;;;;;;;11.98;40.68;101462.59;4898700;29;20498;-89
2021/10/09 14:43:17;;;;;;;148.45;53.58;;;;;;;11.86;40.69;101462.03;4892832;29;20047;-87
2021/10/09 14:45:43;;;;;;;175.85;70.78;;;;;;;11.77;41.47;101460.88;4916187;29;20052;-85
2021/10/09 14:48:34;;;;;;;179.75;52.67;;;;;;;11.73;41.12;101459.78;4907298;29;20055;-81
2021/10/09 14:53:56;;;;;;;214.02;96.55;;;;;;;11.66;41.63;101462.75;4912029;29;20084;-86
2021/10/09 15:59:22;;;;;;;237.57;98.00;;;;;;;9.81;49.37;101445.13;5613513;24;20102;-88
2021/10/09 16:01:48;;;;;;;236.38;104.13;;;;;;;9.88;49.37;101462.97;4920704;24;20052;-93
2021/10/09 16:04:14;;;;;;;276.98;126.82;;;;;;;9.75;49.84;101440.69;4768360;30;20043;-91
2021/10/09 16:18:24;;;;;;;192.48;78.25;;;;;;;9.65;49.08;101455.84;5366175;24;20133;-87
2021/10/09 16:20:51;;;;;;;204.48;81.65;;;;;;;9.64;49.01;101454.22;4788155;29;20056;-90
2021/10/09 16:23:17;;;;;;;293.35;105.32;;;;;;;9.62;49.38;101459.09;4778278;29;20042;-90
2021/10/09 16:25:42;;;;;;;285.67;106.75;;;;;;;9.53;49.51;101440.66;4785074;29;20146;-88
2021/10/09 16:38:02;;;;;;;171.80;69.53;;;;;;;9.51;49.98;101461.97;4884940;24;20479;-92
2021/10/09 16:40:31;;;;;;;217.73;80.47;;;;;;;9.47;49.58;101466.25;4767489;29;20096;-84
2021/10/09 16:42:57;;;;;;;165.43;59.60;;;;;;;9.42;49.60;101458.84;4784101;29;20047;-85
2021/10/09 16:45:23;;;;;;;175.65;68.63;;;;;;;9.42;49.83;101461.56;4784075;30;20108;-79
2021/10/09 16:47:49;;;;;;;140.38;53.47;;;;;;;9.44;49.41;101461.28;4783592;29;20506;-79
2021/10/09 16:50:16;;;;;;;127.30;46.45;;;;;;;9.35;49.29;101453.56;4783176;29;20521;-80
2021/10/09 16:52:42;;;;;;;116.05;42.20;;;;;;;9.33;49.69;101460.34;4782863;29;20039;-80
2021/10/09 17:00:38;;;;;;;132.43;49.35;;;;;;;9.39;52.57;101473.81;4766974;30;20064;-74
2021/10/09 17:03:06;;;;;;;173.85;52.60;;;;;;;9.40;50.58;101458.25;4766716;30;20148;-76
2021/10/09 17:05:32;;;;;;;181.68;58.95;;;;;;;9.33;51.02;101463.88;4767143;30;20485;-79
2021/10/09 17:07:58;;;;;;;208.00;65.35;;;;;;;9.25;51.18;101464.34;4766504;30;20047;-75
2021/10/09 17:10:24;;;;;;;187.80;66.90;;;;;;;9.13;51.37;101460.88;4766522;30;20398;-76
2021/10/09 17:12:50;;;;;;;208.52;67.80;;;;;;;9.15;51.22;101465.00;4770368;30;20040;-85
2021/10/09 17:15:17;;;;;;;204.70;74.13;;;;;;;9.14;51.46;101463.38;4768148;30;20067;-77
2021/10/09 17:17:43;;;;;;;166.02;64.20;;;;;;;9.10;51.21;101454.00;4769497;30;20082;-75
2021/10/09 17:20:10;;;;;;;139.52;53.40;;;;;;;9.07;51.59;101464.59;4769056;30;20079;-75
2021/10/09 17:22:36;;;;;;;158.23;55.83;;;;;;;9.03;51.82;101453.38;4769037;30;20036;-77
2021/10/09 17:25:02;;;;;;;151.88;56.08;;;;;;;9.02;51.55;101449.00;4768657;30;20055;-75
2021/10/09 17:27:29;;;;;;;122.15;46.38;;;;;;;9.00;51.57;101442.94;4769100;30;20426;-75
2021/10/09 17:29:55;;;;;;;139.98;47.33;;;;;;;8.97;51.59;101459.00;4768914;30;20415;-76
2021/10/09 17:32:22;;;;;;;137.18;51.35;;;;;;;8.82;50.97;101433.16;4764864;30;20035;-76
2021/10/09 17:34:48;;;;;;;122.47;50.15;;;;;;;8.94;51.41;101442.06;4767692;30;20055;-79
2021/10/09 17:37:15;;;;;;;124.32;51.97;;;;;;;9.00;51.36;101450.31;4767721;30;20534;-79
2021/10/09 17:39:41;;;;;;;131.07;47.42;;;;;;;8.94;51.67;101461.16;4764625;30;20043;-76
2021/10/09 17:42:10;;;;;;;167.70;73.25;;;;;;;8.86;52.48;101449.84;4767266;30;20047;-82
2021/10/09 17:44:36;;;;;;;212.77;104.32;;;;;;;8.71;52.90;101447.72;4766749;30;20060;-76
2021/10/09 17:47:04;;;;;;;245.30;134.38;;;;;;;8.65;52.88;101454.97;4767005;30;20047;-76
2021/10/09 17:49:30;;;;;;;304.83;162.75;;;;;;;8.55;53.65;101453.97;4766660;30;20090;-78
2021/10/09 17:52:00;;;;;;;324.30;169.15;;;;;;;8.42;53.71;101444.22;4766390;30;20134;-76
2021/10/09 17:54:26;;;;;;;310.35;167.95;;;;;;;8.45;56.26;101454.63;4765872;30;20119;-76
2021/10/09 17:56:55;;;;;;;341.42;187.60;;;;;;;8.57;55.96;101446.34;4766014;30;20082;-75
2021/10/09 17:59:22;;;;;;;442.00;282.85;;;;;;;8.72;52.98;101453.97;4763952;30;20140;-76
2021/10/09 18:01:48;;;;;;;444.60;274.23;;;;;;;8.72;53.06;101451.25;4765767;30;20050;-76
2021/10/09 18:04:16;;;;;;;398.42;240.90;;;;;;;8.62;53.18;101452.72;4765026;30;20126;-76
2021/10/09 18:06:42;;;;;;;415.10;256.98;;;;;;;8.60;53.72;101463.06;4765035;30;20055;-76
2021/10/09 18:09:09;;;;;;;357.67;187.57;;;;;;;8.56;53.42;101450.16;4764781;30;20505;-76
2021/10/09 18:11:37;;;;;;;374.27;212.98;;;;;;;8.52;53.66;101466.19;4764561;30;20051;-76
2021/10/09 18:14:05;;;;;;;331.95;178.00;;;;;;;8.49;53.87;101460.41;4763311;30;20046;-76
2021/10/09 18:16:34;;;;;;;290.85;154.75;;;;;;;8.42;54.23;101453.22;4763332;30;20525;-77
2021/10/09 18:19:01;;;;;;;335.65;170.10;;;;;;;8.24;54.68;101432.44;4762542;30;20050;-78
2021/10/09 18:21:31;;;;;;;216.57;106.75;;;;;;;8.35;54.37;101448.97;4765440;30;20060;-92
2021/10/09 18:24:08;;;;;;;175.57;82.60;;;;;;;8.05;54.35;101408.38;4767874;24;20173;-90
2021/10/09 18:27:00;;;;;;;180.13;73.20;;;;;;;8.31;54.66;101455.97;4758315;30;20080;-85
2021/10/09 18:29:28;;;;;;;159.95;68.47;;;;;;;8.28;54.59;101459.16;4765148;30;20039;-89
2021/10/09 18:31:57;;;;;;;157.30;61.55;;;;;;;8.26;54.87;101453.16;4770991;24;20059;-86
2021/10/09 18:34:24;;;;;;;117.80;50.58;;;;;;;8.22;54.34;101444.66;4744576;30;20522;-86
2021/10/09 18:36:52;;;;;;;128.10;49.60;;;;;;;8.12;54.35;101434.41;4734354;30;20139;-88
2021/10/09 18:39:23;;;;;;;120.47;48.75;;;;;;;8.09;54.84;101434.88;4720667;30;20506;-86
2021/10/09 18:41:54;;;;;;;147.25;50.88;;;;;;;8.14;54.83;101445.03;4728820;30;20083;-89
2021/10/09 18:44:21;;;;;;;129.15;50.63;;;;;;;7.92;54.46;101417.69;4739306;30;20047;-88
2021/10/09 18:46:49;;;;;;;113.97;44.17;;;;;;;8.07;54.47;101445.19;4743210;30;20569;-86
2021/10/09 18:49:17;;;;;;;103.25;43.00;;;;;;;8.14;54.13;101461.38;4747872;30;20059;-86
2021/10/09 18:51:45;;;;;;;128.52;47.30;;;;;;;8.08;54.53;101438.69;4717333;30;20561;-87
2021/10/09 18:54:11;;;;;;;;;;;;;;;8.14;54.84;101455.94;4749549;30;20039;-94
2021/10/09 18:57:24;;;;;;;111.55;47.70;;;;;;;8.05;55.11;101460.97;4748034;30;20291;-84
2021/10/09 19:00:11;;;;;;;134.10;48.10;;;;;;;7.92;55.37;101447.63;4736090;30;20140;-84
2021/10/09 19:02:46;;;;;;;121.95;46.75;;;;;;;7.95;55.40;101456.16;4760178;30;20097;-84
2021/10/09 19:05:13;;;;;;;123.03;44.88;;;;;;;7.92;55.28;101450.34;4733162;30;20051;-84
2021/10/09 19:07:39;;;;;;;89.23;39.10;;;;;;;8.00;55.31;101463.56;4763487;30;20048;-85
2021/10/09 19:10:07;;;;;;;112.35;41.53;;;;;;;7.98;55.22;101450.22;4733204;30;20044;-84
2021/10/09 19:12:37;;;;;;;111.47;43.00;;;;;;;7.92;55.41;101444.91;4763471;30;20047;-91
2021/10/09 19:15:11;;;;;;;107.88;39.38;;;;;;;7.89;55.63;101448.94;4746959;30;20043;-84
2021/10/09 20:19:12;;;;;;;158.57;54.78;;;;;;;7.11;58.14;101444.84;5369890;24;20074;-85
2021/10/09 20:21:44;;;;;;;151.68;53.58;;;;;;;6.94;58.26;101414.00;4802782;30;20047;-93
2021/10/09 20:24:34;;;;;;;140.73;51.67;;;;;;;7.06;58.21;101442.03;4786532;30;20063;-94
2021/10/09 20:27:08;;;;;;;130.55;49.58;;;;;;;7.06;58.39;101436.59;4806096;29;20070;-93
2021/10/09 20:29:42;;;;;;;154.88;52.63;;;;;;;6.75;58.29;101396.97;4766957;30;20063;-89
2021/10/09 20:32:11;;;;;;;142.25;51.40;;;;;;;6.84;58.66;101422.75;4796724;30;20067;-90
2021/10/09 20:34:39;;;;;;;138.85;51.22;;;;;;;6.48;58.81;101374.88;4787259;30;20039;-89
2021/10/09 20:37:09;;;;;;;144.48;52.80;;;;;;;6.82;58.95;101439.31;4758409;30;20078;-92
2021/10/09 20:39:39;;;;;;;141.43;54.35;;;;;;;6.56;58.67;101399.00;4785345;30;20067;-91
2021/10/09 20:42:07;;;;;;;142.30;51.40;;;;;;;6.58;58.90;101407.72;4771448;30;20099;-87
2021/10/09 20:44:34;;;;;;;129.17;50.37;;;;;;;6.88;58.86;101444.84;4805839;29;20134;-87
2021/10/09 20:47:00;;;;;;;118.47;47.00;;;;;;;6.86;58.80;101425.25;4744995;29;20185;-89
2021/10/09 20:49:26;;;;;;;119.63;44.33;;;;;;;6.89;58.61;101430.19;4800279;29;20126;-89
2021/10/09 20:51:52;;;;;;;113.15;41.28;;;;;;;6.95;58.49;101434.69;4787960;30;20086;-90
2021/10/09 20:54:23;;;;;;;106.85;39.60;;;;;;;6.89;58.43;101422.88;4775035;30;20043;-85